Time;durP1;ratioP1;P1;durP2;ratioP2;P2;SDS_P1;SDS_P2;PMS_P1;PMS_P2;Temp;Humidity;BMP_temperature;BMP_pressure;BME280_temperature;BME280_humidity;BME280_pressure;Samples;Min_cycle;Max_cycle;Signal;HPM_P1;HPM_P2
2021/03/17 00:00:45;;;;;;;21.23;17.03;;;;;21.30;101184.00;;;;2086872;28;20210;-45
2021/03/17 00:01:45;;;;;;;19.40;16.53;;;;;21.30;101178.00;;;;2086744;28;20214;-47
2021/03/17 00:02:46;;;;;;;18.67;16.00;;;;;21.30;101178.00;;;;2086684;28;20229;-46
2021/03/17 00:03:46;;;;;;;19.15;16.15;;;;;21.30;101183.00;;;;2086802;28;20225;-45
2021/03/17 00:04:47;;;;;;;19.03;15.23;;;;;21.30;101186.00;;;;2086859;28;20221;-49
2021/03/17 00:05:48;;;;;;;17.80;15.67;;;;;21.30;101183.00;;;;2086821;28;20641;-46
2021/03/17 00:06:48;;;;;;;17.27;14.30;;;;;21.30;101182.00;;;;2086666;28;20225;-49
2021/03/17 00:07:48;;;;;;;18.80;15.07;;;;;21.30;101176.00;;;;2085783;28;20478;-49
2021/03/17 00:08:49;;;;;;;17.90;15.70;;;;;21.30;101179.00;;;;2086674;28;20298;-49
2021/03/17 00:09:49;;;;;;;17.60;14.70;;;;;21.30;101176.00;;;;2086727;28;20817;-48
2021/03/17 00:10:52;;;;;;;16.03;14.37;;;;;21.20;101175.00;;;;2086781;28;20221;-50
2021/03/17 00:11:52;;;;;;;16.65;14.98;;;;;21.20;101183.00;;;;2086853;28;20886;-45
2021/03/17 00:12:53;;;;;;;16.93;14.37;;;;;21.20;101177.00;;;;2086647;28;20212;-45
2021/03/17 00:13:53;;;;;;;15.90;14.18;;;;;21.20;101180.00;;;;2085555;28;20208;-45
2021/03/17 00:14:54;;;;;;;14.90;13.03;;;;;21.20;101177.00;;;;2086722;28;20308;-45
2021/03/17 00:15:58;;;;;;;15.40;13.50;;;;;21.20;101175.00;;;;2086892;28;20216;-46
2021/03/17 00:16:58;;;;;;;14.35;12.75;;;;;21.20;101174.00;;;;2086707;28;20229;-49
2021/03/17 00:17:59;;;;;;;14.60;13.10;;;;;21.20;101178.00;;;;2086044;28;20615;-47
2021/03/17 00:18:59;;;;;;;15.00;13.40;;;;;21.20;101185.00;;;;2086632;28;20248;-49
2021/03/17 00:20:00;;;;;;;14.17;12.67;;;;;21.20;101182.00;;;;2086868;28;20223;-48
2021/03/17 00:21:00;;;;;;;13.93;12.47;;;;;21.20;101187.00;;;;2086958;28;20218;-46
2021/03/17 00:22:00;;;;;;;15.10;13.37;;;;;21.20;101190.00;;;;2086636;28;20616;-45
2021/03/17 00:23:01;;;;;;;14.33;12.80;;;;;21.20;101188.00;;;;2086972;28;20232;-45
2021/03/17 00:24:02;;;;;;;15.97;13.93;;;;;21.20;101191.00;;;;2084517;28;20220;-46
2021/03/17 00:25:03;;;;;;;14.68;13.13;;;;;21.20;101192.00;;;;2083874;28;20221;-45
2021/03/17 00:26:03;;;;;;;13.83;12.33;;;;;21.20;101188.00;;;;2086705;28;20219;-46
2021/03/17 00:27:04;;;;;;;14.10;12.43;;;;;21.20;101184.00;;;;2086394;28;20926;-49
2021/03/17 00:28:04;;;;;;;14.87;12.07;;;;;21.20;101191.00;;;;2085959;28;20216;-46
2021/03/17 00:29:05;;;;;;;13.80;11.97;;;;;21.20;101199.00;;;;2084939;28;20299;-47
2021/03/17 00:30:06;;;;;;;13.20;11.70;;;;;21.20;101194.00;;;;2086452;28;20270;-45
2021/03/17 00:31:06;;;;;;;12.43;11.05;;;;;21.20;101181.00;;;;2086805;28;20221;-46
2021/03/17 00:32:07;;;;;;;13.07;11.03;;;;;21.20;101191.00;;;;2086614;28;20222;-45
2021/03/17 00:33:09;;;;;;;12.80;11.43;;;;;21.10;101188.00;;;;2086665;28;20245;-45
2021/03/17 00:34:09;;;;;;;13.07;11.07;;;;;21.10;101196.00;;;;2088383;28;20243;-46
2021/03/17 00:35:09;;;;;;;12.00;10.77;;;;;21.10;101190.00;;;;2088517;28;20221;-50
2021/03/17 00:36:10;;;;;;;12.00;10.53;;;;;21.10;101192.00;;;;2088364;28;20291;-50
2021/03/17 00:37:10;;;;;;;11.43;10.23;;;;;21.10;101197.00;;;;2088352;28;20232;-45
2021/03/17 00:38:10;;;;;;;12.50;10.60;;;;;21.10;101200.00;;;;2087625;28;20213;-46
2021/03/17 00:39:11;;;;;;;11.03;9.93;;;;;21.10;101197.00;;;;2088216;28;20213;-46
2021/03/17 00:40:12;;;;;;;11.43;10.23;;;;;21.10;101200.00;;;;2088402;28;20236;-45
2021/03/17 00:41:12;;;;;;;11.77;9.93;;;;;21.10;101199.00;;;;2088250;28;20214;-47
2021/03/17 00:42:12;;;;;;;10.83;9.73;;;;;21.10;101201.00;;;;2088052;28;20217;-46
2021/03/17 00:43:13;;;;;;;10.80;9.70;;;;;21.10;101200.00;;;;2088220;28;20217;-46
2021/03/17 00:44:13;;;;;;;10.37;9.30;;;;;21.10;101205.00;;;;2088143;28;20217;-45
2021/03/17 00:45:14;;;;;;;10.80;9.70;;;;;21.10;101201.00;;;;2088355;28;20256;-46
2021/03/17 00:46:14;;;;;;;11.90;10.00;;;;;21.10;101199.00;;;;2085845;28;20296;-48
2021/03/17 00:47:14;;;;;;;12.90;10.27;;;;;21.10;101207.00;;;;2087338;28;20324;-48
2021/03/17 00:48:15;;;;;;;10.33;9.33;;;;;21.10;101204.00;;;;2087748;28;20209;-48
2021/03/17 00:49:15;;;;;;;11.90;9.87;;;;;21.10;101204.00;;;;2088023;28;20218;-46
2021/03/17 00:50:16;;;;;;;10.80;9.70;;;;;21.10;101200.00;;;;2088140;28;20323;-46
2021/03/17 00:51:16;;;;;;;9.83;8.87;;;;;21.10;101200.00;;;;2087983;28;20217;-46
2021/03/17 00:52:17;;;;;;;9.40;8.40;;;;;21.10;101212.00;;;;2087728;28;20471;-46
2021/03/17 00:53:17;;;;;;;9.20;8.30;;;;;21.10;101207.00;;;;2088244;28;20301;-49
2021/03/17 00:54:17;;;;;;;10.10;8.80;;;;;21.10;101208.00;;;;2084331;28;20217;-50
2021/03/17 00:55:18;;;;;;;9.50;8.37;;;;;21.10;101215.00;;;;2078823;28;20218;-48
2021/03/17 00:56:18;;;;;;;9.50;8.57;;;;;21.00;101201.00;;;;2078164;28;20288;-48
2021/03/17 00:57:19;;;;;;;12.47;8.90;;;;;21.00;101207.00;;;;2079464;28;20220;-48
2021/03/17 00:58:19;;;;;;;9.53;8.50;;;;;21.00;101208.00;;;;2078169;28;20232;-47
2021/03/17 00:59:19;;;;;;;8.80;7.90;;;;;21.00;101209.00;;;;2078748;28;20221;-46
2021/03/17 01:00:20;;;;;;;9.00;8.10;;;;;21.00;101207.00;;;;2078514;28;20770;-46
2021/03/17 01:01:20;;;;;;;9.07;7.70;;;;;21.00;101206.00;;;;2079333;28;20575;-49
2021/03/17 01:02:21;;;;;;;9.80;8.40;;;;;21.00;101212.00;;;;2079058;28;20308;-46
2021/03/17 01:03:21;;;;;;;8.47;7.60;;;;;21.00;101205.00;;;;2079470;28;20217;-46
2021/03/17 01:04:22;;;;;;;9.27;7.97;;;;;21.00;101210.00;;;;2078759;28;20302;-47
2021/03/17 01:05:22;;;;;;;9.07;7.53;;;;;21.00;101205.00;;;;2079134;28;20214;-48
2021/03/17 01:06:23;;;;;;;8.20;7.10;;;;;21.00;101202.00;;;;2079311;28;20289;-48
2021/03/17 01:07:23;;;;;;;8.33;7.50;;;;;21.00;101202.00;;;;2078666;28;20218;-46
2021/03/17 01:08:23;;;;;;;7.37;6.67;;;;;21.00;101203.00;;;;2079560;28;20225;-45
2021/03/17 01:09:24;;;;;;;9.40;7.83;;;;;21.00;101202.00;;;;2079162;28;20214;-46
2021/03/17 01:10:47;;;;;;;8.40;7.00;;;;;20.90;101196.00;;;;2078919;28;20556;-44
2021/03/17 01:11:47;;;;;;;8.18;7.38;;;;;21.00;101199.00;;;;2079360;28;20304;-47
2021/03/17 01:12:48;;;;;;;7.40;6.70;;;;;21.00;101196.00;;;;2079484;28;20221;-50
2021/03/17 01:13:48;;;;;;;7.50;6.80;;;;;21.00;101193.00;;;;2079533;28;20684;-47
2021/03/17 01:14:49;;;;;;;8.00;7.20;;;;;21.00;101205.00;;;;2080055;28;20214;-46
2021/03/17 01:15:49;;;;;;;6.93;6.23;;;;;21.00;101209.00;;;;2078948;28;20221;-47
2021/03/17 01:16:49;;;;;;;8.60;7.50;;;;;21.00;101202.00;;;;2079214;28;20210;-50
2021/03/17 01:17:50;;;;;;;7.00;6.30;;;;;21.00;101197.00;;;;2078993;28;20590;-47
2021/03/17 01:18:50;;;;;;;7.40;6.60;;;;;21.00;101197.00;;;;2079861;28;20283;-44
2021/03/17 01:19:50;;;;;;;7.50;6.70;;;;;21.00;101200.00;;;;2079801;28;20629;-46
2021/03/17 01:20:51;;;;;;;7.00;6.30;;;;;21.00;101197.00;;;;2079882;28;20198;-45
2021/03/17 01:21:51;;;;;;;7.37;6.70;;;;;21.00;101192.00;;;;2079659;28;20210;-47
2021/03/17 01:22:52;;;;;;;6.83;6.13;;;;;21.00;101193.00;;;;2079052;28;20305;-45
2021/03/17 01:23:53;;;;;;;7.40;6.70;;;;;21.00;101201.00;;;;2079063;28;20218;-45
2021/03/17 01:24:53;;;;;;;6.90;6.30;;;;;21.00;101196.00;;;;2079735;28;20297;-49
2021/03/17 01:25:53;;;;;;;6.93;6.27;;;;;20.90;101197.00;;;;2079569;28;20226;-45
2021/03/17 01:26:54;;;;;;;8.53;6.83;;;;;21.00;101200.00;;;;2079805;28;20268;-45
2021/03/17 01:27:54;;;;;;;8.10;6.90;;;;;20.90;101204.00;;;;2078824;28;20675;-46
2021/03/17 01:28:54;;;;;;;6.77;6.10;;;;;20.90;101193.00;;;;2079670;28;20214;-45
2021/03/17 01:29:56;;;;;;;7.30;6.40;;;;;20.90;101200.00;;;;2079725;28;20249;-45
2021/03/17 01:30:57;;;;;;;6.13;5.53;;;;;20.90;101197.00;;;;2079384;28;20241;-46
2021/03/17 01:31:57;;;;;;;7.17;6.47;;;;;20.90;101204.00;;;;2078798;28;20269;-45
2021/03/17 01:32:58;;;;;;;8.03;6.57;;;;;20.90;101202.00;;;;2079007;28;20452;-45
2021/03/17 01:33:58;;;;;;;6.83;6.13;;;;;20.90;101201.00;;;;2079171;28;20918;-49
2021/03/17 01:34:59;;;;;;;6.53;5.93;;;;;20.90;101200.00;;;;2079214;28;20360;-49
2021/03/17 01:35:59;;;;;;;5.87;5.30;;;;;20.90;101196.00;;;;2079637;28;20218;-46
2021/03/17 01:36:59;;;;;;;6.60;6.00;;;;;20.90;101200.00;;;;2079482;28;20209;-49
2021/03/17 01:38:00;;;;;;;6.10;5.50;;;;;20.90;101201.00;;;;2077991;28;20214;-47
2021/03/17 01:39:00;;;;;;;5.80;5.30;;;;;20.90;101207.00;;;;2078700;28;20213;-46
2021/03/17 01:40:01;;;;;;;6.07;5.47;;;;;20.90;101203.00;;;;2079432;28;20214;-45
2021/03/17 01:41:01;;;;;;;6.47;5.87;;;;;20.90;101210.00;;;;2079743;28;20272;-49
2021/03/17 01:42:02;;;;;;;6.90;6.17;;;;;20.90;101209.00;;;;2079561;28;20206;-46
2021/03/17 01:43:02;;;;;;;7.10;6.37;;;;;20.90;101220.00;;;;2079633;28;20220;-45
2021/03/17 01:44:03;;;;;;;6.40;5.80;;;;;20.90;101208.00;;;;2079558;28;20233;-45
2021/03/17 01:45:12;;;;;;;5.70;5.20;;;;;20.90;101214.00;;;;2076405;28;20234;-45
2021/03/17 01:46:12;;;;;;;6.70;5.60;;;;;20.90;101208.00;;;;2078760;28;21657;-46
2021/03/17 01:47:12;;;;;;;6.17;5.57;;;;;20.90;101221.00;;;;2079461;28;20241;-45
2021/03/17 01:48:13;;;;;;;6.27;5.43;;;;;20.90;101211.00;;;;2078658;28;20217;-45
2021/03/17 01:49:13;;;;;;;5.70;5.20;;;;;20.90;101217.00;;;;2078798;28;20233;-45
2021/03/17 01:50:16;;;;;;;6.07;5.57;;;;;20.90;101211.00;;;;2078813;28;20217;-45
2021/03/17 01:51:16;;;;;;;6.05;5.55;;;;;20.90;101213.00;;;;2079482;28;21017;-46
2021/03/17 01:52:17;;;;;;;5.10;4.60;;;;;20.90;101219.00;;;;2079036;28;20237;-45
2021/03/17 01:53:37;;;;;;;5.40;4.90;;;;;20.80;101217.00;;;;2078904;28;20955;-45
2021/03/17 01:54:38;;;;;;;5.72;4.93;;;;;20.80;101219.00;;;;2078256;28;20228;-50
2021/03/17 01:55:38;;;;;;;6.57;5.90;;;;;20.80;101218.00;;;;2079533;28;20256;-48
2021/03/17 01:56:39;;;;;;;5.70;5.20;;;;;20.80;101220.00;;;;2078771;28;20218;-46
2021/03/17 01:57:39;;;;;;;5.20;4.77;;;;;20.80;101220.00;;;;2069769;28;20646;-47
2021/03/17 01:58:40;;;;;;;5.67;5.10;;;;;20.80;101215.00;;;;2078756;28;20218;-46
2021/03/17 01:59:40;;;;;;;5.93;5.13;;;;;20.80;101224.00;;;;2078374;28;20221;-47
2021/03/17 02:00:40;;;;;;;5.03;4.60;;;;;20.80;101212.00;;;;2070354;28;20269;-48
2021/03/17 02:01:41;;;;;;;5.53;5.03;;;;;20.80;101220.00;;;;2078560;28;20233;-46
2021/03/17 02:02:43;;;;;;;5.50;5.00;;;;;20.80;101220.00;;;;2079271;28;20229;-46
2021/03/17 02:03:43;;;;;;;5.95;4.75;;;;;20.80;101219.00;;;;2079468;28;20683;-46
2021/03/17 02:04:44;;;;;;;5.40;4.90;;;;;20.80;101222.00;;;;2079269;28;20210;-45
2021/03/17 02:05:45;;;;;;;5.90;5.40;;;;;20.80;101229.00;;;;2079333;28;20620;-49
2021/03/17 02:06:46;;;;;;;5.65;4.93;;;;;20.80;101219.00;;;;2079341;28;20221;-45
2021/03/17 02:07:46;;;;;;;6.57;4.70;;;;;20.80;101220.00;;;;2077674;28;20679;-45
2021/03/17 02:08:46;;;;;;;5.40;4.90;;;;;20.80;101224.00;;;;2078586;28;20218;-48
2021/03/17 02:09:47;;;;;;;6.07;5.50;;;;;20.80;101217.00;;;;2078457;28;20718;-46
2021/03/17 02:10:47;;;;;;;5.80;5.20;;;;;20.80;101228.00;;;;2079085;28;20226;-46
2021/03/17 02:11:57;;;;;;;5.07;4.57;;;;;20.80;101220.00;;;;2079259;28;20476;-47
2021/03/17 02:13:21;;;;;;;6.32;5.72;;;;;20.80;101218.00;;;;2076213;28;20234;-45
2021/03/17 02:14:46;;;;;;;6.05;5.45;;;;;20.80;101208.00;;;;2065584;28;20237;-45
2021/03/17 02:16:18;;;;;;;5.70;5.07;;;;;20.80;101224.00;;;;2061533;28;20229;-49
2021/03/17 02:17:21;;;;;;;5.75;5.25;;;;;20.80;101224.00;;;;2076506;28;20222;-46
2021/03/17 02:18:38;;;;;;;5.00;4.60;;;;;20.80;101215.00;;;;2077969;28;20225;-47
2021/03/17 02:19:47;;;;;;;5.60;5.03;;;;;20.80;101220.00;;;;2072449;28;20214;-45
2021/03/17 02:21:15;;;;;;;5.35;4.85;;;;;20.80;101227.00;;;;2078607;28;21681;-47
2021/03/17 02:22:38;;;;;;;6.72;5.50;;;;;20.80;101228.00;;;;2078968;28;20526;-46
2021/03/17 02:23:53;;;;;;;5.65;5.15;;;;;20.80;101233.00;;;;2070095;28;20210;-45
2021/03/17 02:24:59;;;;;;;5.82;5.32;;;;;20.80;101216.00;;;;2067430;28;20222;-45
2021/03/17 02:26:08;;;;;;;5.50;5.00;;;;;20.80;101236.00;;;;2070636;28;20297;-47
2021/03/17 02:27:27;;;;;;;6.35;5.22;;;;;20.70;101236.00;;;;2078722;28;20256;-46
2021/03/17 02:28:58;;;;;;;5.40;4.90;;;;;20.80;101233.00;;;;2078897;28;20292;-47
2021/03/17 02:30:19;;;;;;;5.10;4.70;;;;;20.70;101232.00;;;;2066118;28;20223;-46
2021/03/17 02:31:42;;;;;;;5.45;4.95;;;;;20.70;101230.00;;;;2074456;28;20583;-46
2021/03/17 02:32:42;;;;;;;5.30;4.80;;;;;20.70;101229.00;;;;2079109;28;20698;-46
2021/03/17 02:33:57;;;;;;;5.43;4.97;;;;;20.70;101233.00;;;;2079357;28;20224;-45
2021/03/17 02:35:00;;;;;;;5.30;4.80;;;;;20.70;101237.00;;;;2079329;28;20252;-46
2021/03/17 02:36:19;;;;;;;6.00;5.50;;;;;20.70;101236.00;;;;2069258;28;20599;-45
2021/03/17 02:37:22;;;;;;;6.57;5.97;;;;;20.70;101238.00;;;;2073269;28;20456;-46
2021/03/17 02:38:22;;;;;;;6.07;5.43;;;;;20.70;101235.00;;;;2069667;28;20618;-46
2021/03/17 02:39:38;;;;;;;6.30;5.80;;;;;20.80;101242.00;;;;2070264;28;20306;-45
2021/03/17 02:40:38;;;;;;;5.30;4.80;;;;;20.70;101237.00;;;;2069921;28;20746;-46
2021/03/17 02:41:48;;;;;;;5.70;5.30;;;;;20.70;101237.00;;;;2072050;28;20225;-49
2021/03/17 02:42:55;;;;;;;6.10;5.60;;;;;20.70;101239.00;;;;2071570;28;20211;-50
2021/03/17 02:43:57;;;;;;;5.63;5.18;;;;;20.70;101226.00;;;;2078538;28;20817;-46
2021/03/17 02:45:24;;;;;;;6.05;5.45;;;;;20.70;101232.00;;;;2070353;28;20698;-45
2021/03/17 02:46:25;;;;;;;5.60;5.10;;;;;20.70;101228.00;;;;2069061;28;20218;-45
2021/03/17 02:47:26;;;;;;;5.33;4.83;;;;;20.70;101236.00;;;;2077446;28;20218;-46
2021/03/17 02:48:31;;;;;;;5.77;5.27;;;;;20.70;101232.00;;;;2069732;28;20516;-46
2021/03/17 02:49:35;;;;;;;5.55;5.05;;;;;20.70;101237.00;;;;2068940;28;20305;-48
2021/03/17 02:50:36;;;;;;;5.07;4.68;;;;;20.70;101244.00;;;;2078848;28;20233;-45
2021/03/17 02:51:43;;;;;;;5.33;4.90;;;;;20.70;101229.00;;;;2072946;28;20300;-46
2021/03/17 02:52:44;;;;;;;5.63;5.13;;;;;20.70;101233.00;;;;2062958;28;20584;-45
2021/03/17 02:53:44;;;;;;;4.90;4.50;;;;;20.60;101237.00;;;;2070240;28;20226;-46
2021/03/17 02:54:46;;;;;;;5.40;5.00;;;;;20.70;101212.00;;;;2070094;28;20218;-45
2021/03/17 02:55:49;;;;;;;5.20;4.80;;;;;20.70;101235.00;;;;2053311;28;20212;-48
2021/03/17 02:56:52;;;;;;;5.13;4.68;;;;;20.70;101235.00;;;;2063869;28;20210;-47
2021/03/17 02:57:53;;;;;;;4.65;4.25;;;;;20.60;101238.00;;;;2068781;28;21320;-45
2021/03/17 02:58:54;;;;;;;5.03;4.63;;;;;20.60;101231.00;;;;2053412;28;20247;-48
2021/03/17 02:59:54;;;;;;;5.30;4.90;;;;;20.60;101235.00;;;;2061847;28;20564;-46
2021/03/17 03:00:56;;;;;;;5.17;4.77;;;;;20.60;101235.00;;;;2070044;28;20218;-45
2021/03/17 03:01:58;;;;;;;5.20;4.75;;;;;20.60;101237.00;;;;2070280;28;20210;-46
2021/03/17 03:02:59;;;;;;;4.93;4.53;;;;;20.60;101225.00;;;;2069477;28;20758;-48
2021/03/17 03:04:00;;;;;;;4.60;4.20;;;;;20.60;101216.00;;;;2070011;28;20591;-46
2021/03/17 03:05:00;;;;;;;4.33;4.03;;;;;20.70;101225.00;;;;2053373;28;20215;-49
2021/03/17 03:06:02;;;;;;;5.90;5.40;;;;;20.70;101230.00;;;;2053785;28;20299;-46
2021/03/17 03:07:02;;;;;;;4.35;4.05;;;;;20.60;101228.00;;;;2077870;28;20301;-46
2021/03/17 03:08:03;;;;;;;5.00;4.60;;;;;20.70;101224.00;;;;2068425;28;20203;-46
2021/03/17 03:09:03;;;;;;;4.90;4.50;;;;;20.60;101226.00;;;;2069247;28;20299;-45
2021/03/17 03:10:06;;;;;;;4.10;3.80;;;;;20.60;101228.00;;;;2069642;28;20226;-45
2021/03/17 03:11:08;;;;;;;4.93;4.53;;;;;20.60;101225.00;;;;2060778;28;20214;-46
2021/03/17 03:12:08;;;;;;;4.68;4.38;;;;;20.60;101235.00;;;;2070651;28;20206;-49
2021/03/17 03:13:08;;;;;;;4.20;3.80;;;;;20.60;101225.00;;;;2069982;28;20610;-49
2021/03/17 03:14:09;;;;;;;5.03;4.63;;;;;20.60;101233.00;;;;2061779;28;20307;-45
2021/03/17 03:15:10;;;;;;;5.03;4.63;;;;;20.60;101228.00;;;;2069982;28;20640;-47
2021/03/17 03:16:14;;;;;;;4.75;4.35;;;;;20.60;101237.00;;;;2078063;28;20221;-46
2021/03/17 03:17:14;;;;;;;4.30;3.90;;;;;20.60;101232.00;;;;2070190;28;20305;-45
2021/03/17 03:18:14;;;;;;;4.30;4.00;;;;;20.60;101221.00;;;;2061005;28;20215;-48
2021/03/17 03:19:17;;;;;;;3.97;3.67;;;;;20.60;101226.00;;;;2070032;28;20488;-47
2021/03/17 03:20:18;;;;;;;4.57;4.18;;;;;20.60;101229.00;;;;2078012;28;20699;-45
2021/03/17 03:21:20;;;;;;;4.25;3.95;;;;;20.60;101234.00;;;;2069194;28;20711;-46
2021/03/17 03:22:21;;;;;;;4.50;4.20;;;;;20.60;101229.00;;;;2067532;28;20936;-46
2021/03/17 03:23:22;;;;;;;4.77;4.27;;;;;20.60;101230.00;;;;2069962;28;20211;-46
2021/03/17 03:24:23;;;;;;;3.70;3.40;;;;;20.60;101236.00;;;;2074714;28;20456;-49
2021/03/17 03:25:24;;;;;;;3.80;3.50;;;;;20.60;101232.00;;;;2078109;28;20281;-47
2021/03/17 03:26:24;;;;;;;4.18;3.88;;;;;20.60;101231.00;;;;2069081;28;20285;-47
2021/03/17 03:27:24;;;;;;;3.83;3.53;;;;;20.60;101226.00;;;;2069171;28;20638;-46
2021/03/17 03:28:25;;;;;;;3.90;3.53;;;;;20.60;101231.00;;;;2077929;28;20695;-48
2021/03/17 03:29:25;;;;;;;4.20;3.80;;;;;20.60;101232.00;;;;2069876;28;20230;-46
2021/03/17 03:30:27;;;;;;;4.23;3.80;;;;;20.60;101239.00;;;;2070066;28;20218;-46
2021/03/17 03:31:27;;;;;;;4.07;3.78;;;;;20.60;101229.00;;;;2069486;28;20218;-46
2021/03/17 03:32:27;;;;;;;3.67;3.43;;;;;20.60;101227.00;;;;2069812;28;20230;-47
2021/03/17 03:33:28;;;;;;;3.70;3.40;;;;;20.60;101222.00;;;;2069718;28;20226;-45
2021/03/17 03:34:28;;;;;;;3.50;3.23;;;;;20.60;101228.00;;;;2069812;28;20222;-48
2021/03/17 03:35:29;;;;;;;3.70;3.40;;;;;20.60;101220.00;;;;2070421;28;20394;-48
2021/03/17 03:36:29;;;;;;;3.87;3.57;;;;;20.50;101228.00;;;;2070685;28;20596;-49
2021/03/17 03:37:29;;;;;;;4.03;3.73;;;;;20.50;101224.00;;;;2069971;28;20238;-46
2021/03/17 03:38:30;;;;;;;3.50;3.20;;;;;20.50;101225.00;;;;2077826;28;20245;-46
2021/03/17 03:39:30;;;;;;;3.20;3.00;;;;;20.50;101215.00;;;;2078148;28;20300;-45
2021/03/17 03:40:31;;;;;;;3.67;3.37;;;;;20.50;101225.00;;;;2070864;28;20213;-45
2021/03/17 03:41:31;;;;;;;3.40;3.20;;;;;20.60;101220.00;;;;2070704;28;20245;-49
2021/03/17 03:42:32;;;;;;;3.43;3.13;;;;;20.50;101216.00;;;;2078075;28;20227;-46
2021/03/17 03:43:32;;;;;;;3.47;3.20;;;;;20.60;101216.00;;;;2077954;28;20214;-46
2021/03/17 03:44:33;;;;;;;4.57;2.90;;;;;20.40;101222.00;;;;2070749;28;20280;-45
2021/03/17 03:45:34;;;;;;;3.38;3.08;;;;;20.50;101219.00;;;;2070697;28;20215;-46
2021/03/17 03:46:34;;;;;;;3.70;3.40;;;;;20.50;101218.00;;;;2070669;28;20753;-45
2021/03/17 03:47:35;;;;;;;3.00;2.80;;;;;20.50;101229.00;;;;2069491;28;20254;-45
2021/03/17 03:48:38;;;;;;;2.80;2.60;;;;;20.50;101226.00;;;;2070443;28;20680;-49
2021/03/17 03:49:38;;;;;;;2.88;2.67;;;;;20.50;101233.00;;;;2078096;28;20217;-48
2021/03/17 03:50:44;;;;;;;2.80;2.60;;;;;20.50;101229.00;;;;2077686;28;20222;-46
2021/03/17 03:51:47;;;;;;;3.72;2.83;;;;;20.50;101222.00;;;;2069628;28;20246;-45
2021/03/17 03:52:50;;;;;;;2.60;2.40;;;;;20.50;101221.00;;;;2062048;28;20230;-47
2021/03/17 03:54:12;;;;;;;2.45;2.25;;;;;20.50;101229.00;;;;2070074;28;20222;-45
2021/03/17 03:55:16;;;;;;;2.72;2.50;;;;;20.50;101226.00;;;;2078600;28;20214;-45
2021/03/17 03:56:22;;;;;;;2.88;2.67;;;;;20.50;101218.00;;;;2069950;28;20270;-46
2021/03/17 03:57:30;;;;;;;2.70;2.50;;;;;20.50;101217.00;;;;2062247;28;20642;-45
2021/03/17 03:59:11;;;;;;;2.80;2.60;;;;;20.50;101225.00;;;;2063559;28;20226;-46
2021/03/17 04:00:12;;;;;;;2.45;2.25;;;;;20.50;101225.00;;;;2060545;28;20265;-46
2021/03/17 04:01:26;;;;;;;2.70;2.50;;;;;20.50;101221.00;;;;2053325;28;20209;-45
2021/03/17 04:02:26;;;;;;;2.70;2.50;;;;;20.50;101221.00;;;;2054811;28;20306;-45
2021/03/17 04:03:27;;;;;;;2.60;2.40;;;;;20.50;101220.00;;;;2053597;28;20223;-46
2021/03/17 04:04:29;;;;;;;2.87;2.67;;;;;20.50;101222.00;;;;2045377;28;20273;-47
2021/03/17 04:05:36;;;;;;;2.78;2.58;;;;;20.50;101210.00;;;;2055466;28;20212;-49
2021/03/17 04:06:37;;;;;;;2.28;2.08;;;;;20.50;101220.00;;;;2078252;28;20719;-45
2021/03/17 04:07:37;;;;;;;2.30;2.10;;;;;20.50;101220.00;;;;2069552;28;20218;-45
2021/03/17 04:08:42;;;;;;;2.13;2.03;;;;;20.50;101220.00;;;;2071580;28;20305;-44
2021/03/17 04:09:45;;;;;;;2.30;2.17;;;;;20.40;101224.00;;;;2063727;28;20226;-47
2021/03/17 04:10:51;;;;;;;1.92;1.77;;;;;20.40;101220.00;;;;2071402;28;20268;-47
2021/03/17 04:11:53;;;;;;;2.08;1.98;;;;;20.50;101220.00;;;;2079623;28;20297;-45
2021/03/17 04:12:54;;;;;;;2.25;2.10;;;;;20.40;101220.00;;;;2071360;28;20211;-45
2021/03/17 04:13:55;;;;;;;2.40;2.13;;;;;20.50;101227.00;;;;2071299;28;20305;-45
2021/03/17 04:14:57;;;;;;;2.00;1.85;;;;;20.50;101221.00;;;;2071406;28;20276;-48
2021/03/17 04:15:57;;;;;;;1.92;1.75;;;;;20.40;101221.00;;;;2071534;28;20222;-45
2021/03/17 04:17:02;;;;;;;2.20;2.00;;;;;20.40;101226.00;;;;2079650;28;20229;-44
2021/03/17 04:18:09;;;;;;;2.08;1.98;;;;;20.40;101220.00;;;;2078945;28;20260;-45
2021/03/17 04:19:10;;;;;;;2.08;1.77;;;;;20.40;101214.00;;;;2079433;28;20313;-48
2021/03/17 04:20:13;;;;;;;1.80;1.70;;;;;20.50;101230.00;;;;2071382;28;20682;-45
2021/03/17 04:21:17;;;;;;;1.70;1.60;;;;;20.40;101225.00;;;;2071394;28;20461;-46
2021/03/17 04:22:17;;;;;;;2.03;1.85;;;;;20.40;101222.00;;;;2062997;28;20568;-45
2021/03/17 04:23:18;;;;;;;1.83;1.73;;;;;20.40;101223.00;;;;2055123;28;20303;-45
2021/03/17 04:24:18;;;;;;;1.97;1.87;;;;;20.40;101230.00;;;;2067281;28;20225;-49
2021/03/17 04:25:19;;;;;;;2.30;2.20;;;;;20.40;101222.00;;;;2054882;28;20216;-50
2021/03/17 04:26:19;;;;;;;1.80;1.70;;;;;20.40;101227.00;;;;2054929;28;20223;-47
2021/03/17 04:27:20;;;;;;;1.80;1.70;;;;;20.40;101234.00;;;;2063349;28;21038;-49
2021/03/17 04:28:24;;;;;;;1.90;1.80;;;;;20.40;101223.00;;;;2070250;28;20264;-45
2021/03/17 04:29:25;;;;;;;2.05;1.90;;;;;20.40;101229.00;;;;2063603;28;20282;-48
2021/03/17 04:30:25;;;;;;;1.67;1.57;;;;;20.40;101232.00;;;;2063414;28;20583;-46
2021/03/17 04:31:26;;;;;;;1.70;1.60;;;;;20.40;101225.00;;;;2070540;28;20230;-47
2021/03/17 04:32:26;;;;;;;1.73;1.63;;;;;20.40;101229.00;;;;2063050;28;20223;-46
2021/03/17 04:33:27;;;;;;;1.63;1.53;;;;;20.40;101224.00;;;;2062932;28;20716;-49
2021/03/17 04:34:27;;;;;;;2.03;1.90;;;;;20.40;101232.00;;;;2055310;28;20259;-45
2021/03/17 04:35:28;;;;;;;1.40;1.30;;;;;20.40;101224.00;;;;2063159;28;20278;-45
2021/03/17 04:36:28;;;;;;;2.37;1.50;;;;;20.40;101219.00;;;;2068795;28;20310;-47
2021/03/17 04:37:28;;;;;;;1.83;1.40;;;;;20.40;101235.00;;;;2062663;28;20249;-46
2021/03/17 04:38:29;;;;;;;1.60;1.50;;;;;20.40;101233.00;;;;2069115;28;20210;-47
2021/03/17 04:39:29;;;;;;;1.27;1.17;;;;;20.40;101238.00;;;;2062794;28;20634;-46
2021/03/17 04:40:30;;;;;;;1.60;1.50;;;;;20.40;101234.00;;;;2062606;28;20216;-46
2021/03/17 04:41:30;;;;;;;1.70;1.60;;;;;20.40;101236.00;;;;2063125;28;20219;-47
2021/03/17 04:42:30;;;;;;;1.70;1.60;;;;;20.40;101236.00;;;;2063093;28;20711;-47
2021/03/17 04:43:31;;;;;;;2.00;1.57;;;;;20.30;101224.00;;;;2079033;28;20218;-47
2021/03/17 04:44:31;;;;;;;1.40;1.30;;;;;20.40;101240.00;;;;2063232;28;20212;-47
2021/03/17 04:45:32;;;;;;;1.50;1.40;;;;;20.40;101238.00;;;;2054977;28;20697;-46
2021/03/17 04:46:33;;;;;;;2.00;1.47;;;;;20.40;101235.00;;;;2063030;28;20219;-47
2021/03/17 04:47:33;;;;;;;1.30;1.20;;;;;20.40;101238.00;;;;2062030;28;20226;-46
2021/03/17 04:48:34;;;;;;;1.20;1.10;;;;;20.40;101239.00;;;;2054950;28;20713;-46
2021/03/17 04:49:34;;;;;;;1.33;1.23;;;;;20.40;101236.00;;;;2048845;28;20217;-46
2021/03/17 04:50:35;;;;;;;1.30;1.20;;;;;20.40;101243.00;;;;2055094;28;20216;-46
2021/03/17 04:51:35;;;;;;;1.37;1.27;;;;;20.30;101239.00;;;;2077385;28;20222;-46
2021/03/17 04:52:36;;;;;;;1.30;1.20;;;;;20.30;101247.00;;;;2079917;28;20222;-46
2021/03/17 04:53:36;;;;;;;1.47;1.30;;;;;20.40;101246.00;;;;2079312;28;20460;-46
2021/03/17 04:54:37;;;;;;;1.13;1.03;;;;;20.30;101242.00;;;;2079228;28;20233;-46
2021/03/17 04:55:37;;;;;;;1.30;1.20;;;;;20.30;101248.00;;;;2079084;28;20214;-46
2021/03/17 04:56:38;;;;;;;1.20;1.10;;;;;20.30;101247.00;;;;2073684;28;20222;-46
2021/03/17 04:57:39;;;;;;;1.40;1.30;;;;;20.30;101247.00;;;;2078231;28;20861;-46
2021/03/17 04:58:40;;;;;;;1.13;1.02;;;;;20.30;101238.00;;;;2078084;28;20283;-47
2021/03/17 04:59:40;;;;;;;1.20;1.10;;;;;20.30;101241.00;;;;2079000;28;20308;-47
2021/03/17 05:00:42;;;;;;;1.20;1.10;;;;;20.30;101243.00;;;;2071188;28;20222;-46
2021/03/17 05:01:42;;;;;;;1.13;1.02;;;;;20.30;101241.00;;;;2087293;28;20228;-46
2021/03/17 05:02:45;;;;;;;1.10;1.00;;;;;20.30;101242.00;;;;2087534;28;20267;-46
2021/03/17 05:03:46;;;;;;;1.10;1.10;;;;;20.30;101245.00;;;;2079416;28;20253;-46
2021/03/17 05:04:46;;;;;;;1.30;1.20;;;;;20.30;101246.00;;;;2079204;28;20222;-46
2021/03/17 05:05:50;;;;;;;0.90;0.90;;;;;20.30;101245.00;;;;2071110;28;21049;-46
2021/03/17 05:06:51;;;;;;;1.25;1.15;;;;;20.30;101252.00;;;;2071806;28;20687;-47
2021/03/17 05:07:51;;;;;;;1.40;1.30;;;;;20.30;101246.00;;;;2070475;28;20210;-47
2021/03/17 05:08:51;;;;;;;1.27;1.17;;;;;20.30;101246.00;;;;2071114;28;20695;-47